Etusivu
METAR-TAF:

METAR-TAF

Lentoasemat :

Albertus Airport

Freeport, Illinois, Yhdysvallat

Leveyspiiri: 42-14-47N, Pituuspiiri: 089-34-56W, korkeus merenpinnasta: 262 m

Tämänhetkinen sää

Tämä raportti tehtiin 34 minuuttia sitten, kello 04.55 UTC
tyyntä
Lämpötila 0°C
Kosteus 100%
Ilmanpaine 1008 hPa
Näkyvyys: 11.3 km
Pilvistä 800 ft:n korkeudessa

METAR: KFEP 190455Z AUTO 00000KT 7SM OVC008 00/00 A2978 RMK AO2 T00020000

Aika: 23:29 (05:29 UTC)


TAF: puuttuu

Säähavainnot ja -ennusteet yli 4000 lentoasemalta (METAR- ja TAF-raportit).

Käytössä olevat sääasemat on merkitty karttaan keltaisilla ja punaisilla pisteillä.

Aseta hiiri pisteen päälle nähdäksesi sääaseman nimen.

Klikkaa sitten nähdäksesi säähavainnot ja -ennusteet.

Kartan vaihtaminen: klikkaa mustalla rastilla varustettuja vihreitä pisteitä, niin voit zoomata sisään; viivalla varustettua vihreää pistettä, niin voit zoomata ulos tai vihreitä nuolia, niin pääset viereisille kartoille.


METAR-TAF: